Terminal Aerodrome Forecast
Issued by NWS Cleveland, OH

Home | Current Version | Previous Version | Graphics & Text | Print | Product List | Glossary On
Versions: 1 2 3 4 5 6 7 8 9 10 11 12 13 14 15 16 17
000
FTUS41 KCLE 301400 AAA
TAFERI
TAF AMD
KERI 301407Z 3014/0112 32005KT P6SM OVC060
      TEMPO 3014/3017 4SM -SHRA BR
     FM301700 35008KT P6SM -SHRA SCT015 OVC035
      TEMPO 3017/3021 BKN015 OVC035
     FM010100 02005KT P6SM SCT050=

USA.gov is the U.S. government's official web portal to all federal, state and local government web resources and services.